KHGR/HGR METAR and TAF weather

Enter ICAO airport designator
Station Type Date Time Source
KHGR METAR 2022/06/28 14:53 UTC NOAA

KHGR 281453Z 33007KT 10SM FEW050 22/09 A3023 RMK AO2 SLP242 T02220094 51004


Station Type Date Time Source
KHGR Decoded METAR 2022/06/28 14:53 UTC NOAA

HAGERSTOWN REGIONAL AIRPORT, MD, United States (KHGR) 39-42N 077-44W 224M
Jun 28, 2022 - 10:53 AM EDT / 2022.06.28 1453 UTC
Wind: from the NNW (330 degrees) at 8 MPH (7 KT):0
Visibility: 10 mile(s):0
Sky conditions: mostly clear
Temperature: 72.0 F (22.2 C)
Dew Point: 48.9 F (9.4 C)
Relative Humidity: 44%
Pressure (altimeter): 30.23 in. Hg (1023 hPa)
Pressure tendency: 0.01 inches (0.4 hPa) higher than three hours ago
ob: KHGR 281453Z 33007KT 10SM FEW050 22/09 A3023 RMK AO2 SLP242 T02220094 51004
cycle: 15

Station Type Date Time Source
KHGR TAF UTC NOAA

Error!

Example: see airport list